sensor_id;sensor_type;location;lat;lon;timestamp;P1;durP1;ratioP1;P2;durP2;ratioP2
27412;SDS011;14871;52.702;5.230;2023-11-21T00:00:00;20.23;;;9.43;;
27412;SDS011;14871;52.702;5.230;2023-11-21T00:02:25;21.98;;;10.10;;
27412;SDS011;14871;52.702;5.230;2023-11-21T00:04:52;21.98;;;9.27;;
27412;SDS011;14871;52.702;5.230;2023-11-21T00:07:17;23.00;;;9.23;;
27412;SDS011;14871;52.702;5.230;2023-11-21T00:09:43;29.70;;;10.05;;
27412;SDS011;14871;52.702;5.230;2023-11-21T00:12:09;22.48;;;10.05;;
27412;SDS011;14871;52.702;5.230;2023-11-21T00:14:35;26.40;;;8.77;;
27412;SDS011;14871;52.702;5.230;2023-11-21T00:17:05;18.42;;;9.07;;
27412;SDS011;14871;52.702;5.230;2023-11-21T00:19:31;26.77;;;9.63;;
27412;SDS011;14871;52.702;5.230;2023-11-21T00:21:58;24.63;;;10.23;;
27412;SDS011;14871;52.702;5.230;2023-11-21T00:24:24;19.63;;;9.23;;
27412;SDS011;14871;52.702;5.230;2023-11-21T00:26:50;23.45;;;9.52;;
27412;SDS011;14871;52.702;5.230;2023-11-21T00:29:16;18.08;;;8.40;;
27412;SDS011;14871;52.702;5.230;2023-11-21T00:31:43;24.23;;;10.55;;
27412;SDS011;14871;52.702;5.230;2023-11-21T00:34:10;22.00;;;8.88;;
27412;SDS011;14871;52.702;5.230;2023-11-21T00:36:36;22.73;;;9.15;;
27412;SDS011;14871;52.702;5.230;2023-11-21T00:39:02;24.58;;;9.30;;
27412;SDS011;14871;52.702;5.230;2023-11-21T00:41:28;17.00;;;8.38;;
27412;SDS011;14871;52.702;5.230;2023-11-21T00:43:54;20.05;;;8.75;;
27412;SDS011;14871;52.702;5.230;2023-11-21T00:46:20;19.25;;;8.95;;
27412;SDS011;14871;52.702;5.230;2023-11-21T00:48:46;18.17;;;8.80;;
27412;SDS011;14871;52.702;5.230;2023-11-21T00:51:11;20.40;;;9.18;;
27412;SDS011;14871;52.702;5.230;2023-11-21T00:53:37;22.63;;;9.32;;
27412;SDS011;14871;52.702;5.230;2023-11-21T00:56:02;15.45;;;8.65;;
27412;SDS011;14871;52.702;5.230;2023-11-21T00:58:28;17.45;;;7.90;;
27412;SDS011;14871;52.702;5.230;2023-11-21T01:00:55;19.15;;;8.15;;
27412;SDS011;14871;52.702;5.230;2023-11-21T01:03:21;20.20;;;8.10;;
27412;SDS011;14871;52.702;5.230;2023-11-21T01:05:46;22.17;;;8.00;;
27412;SDS011;14871;52.702;5.230;2023-11-21T01:08:14;21.70;;;8.32;;
27412;SDS011;14871;52.702;5.230;2023-11-21T01:10:40;23.33;;;8.77;;
27412;SDS011;14871;52.702;5.230;2023-11-21T01:13:05;18.77;;;8.10;;
27412;SDS011;14871;52.702;5.230;2023-11-21T01:15:32;18.50;;;8.88;;
27412;SDS011;14871;52.702;5.230;2023-11-21T01:17:58;22.05;;;8.90;;
27412;SDS011;14871;52.702;5.230;2023-11-21T01:20:24;16.20;;;8.27;;
27412;SDS011;14871;52.702;5.230;2023-11-21T01:22:49;16.98;;;7.68;;
27412;SDS011;14871;52.702;5.230;2023-11-21T01:25:15;19.35;;;7.22;;
27412;SDS011;14871;52.702;5.230;2023-11-21T01:27:41;22.92;;;8.90;;
27412;SDS011;14871;52.702;5.230;2023-11-21T01:30:08;20.50;;;7.97;;
27412;SDS011;14871;52.702;5.230;2023-11-21T01:32:36;19.35;;;8.10;;
27412;SDS011;14871;52.702;5.230;2023-11-21T01:35:02;22.15;;;8.13;;
27412;SDS011;14871;52.702;5.230;2023-11-21T01:37:30;21.20;;;8.52;;
27412;SDS011;14871;52.702;5.230;2023-11-21T01:39:56;22.00;;;7.78;;
27412;SDS011;14871;52.702;5.230;2023-11-21T01:42:21;21.20;;;8.43;;
27412;SDS011;14871;52.702;5.230;2023-11-21T01:44:47;17.50;;;7.90;;
27412;SDS011;14871;52.702;5.230;2023-11-21T01:47:14;21.58;;;9.05;;
27412;SDS011;14871;52.702;5.230;2023-11-21T01:49:40;16.17;;;7.88;;
27412;SDS011;14871;52.702;5.230;2023-11-21T01:52:10;22.48;;;8.40;;
27412;SDS011;14871;52.702;5.230;2023-11-21T01:54:36;25.23;;;9.40;;
27412;SDS011;14871;52.702;5.230;2023-11-21T01:57:03;21.27;;;8.10;;
27412;SDS011;14871;52.702;5.230;2023-11-21T01:59:33;21.40;;;8.02;;
27412;SDS011;14871;52.702;5.230;2023-11-21T02:02:03;22.05;;;7.78;;
27412;SDS011;14871;52.702;5.230;2023-11-21T02:04:32;20.63;;;7.70;;
27412;SDS011;14871;52.702;5.230;2023-11-21T02:06:59;21.10;;;8.45;;
27412;SDS011;14871;52.702;5.230;2023-11-21T02:09:25;23.33;;;7.85;;
27412;SDS011;14871;52.702;5.230;2023-11-21T02:11:52;24.80;;;8.40;;
27412;SDS011;14871;52.702;5.230;2023-11-21T02:14:21;17.73;;;7.90;;
27412;SDS011;14871;52.702;5.230;2023-11-21T02:16:48;17.60;;;7.63;;
27412;SDS011;14871;52.702;5.230;2023-11-21T02:19:15;21.05;;;8.18;;
27412;SDS011;14871;52.702;5.230;2023-11-21T02:22:01;18.13;;;7.60;;
27412;SDS011;14871;52.702;5.230;2023-11-21T02:24:31;17.90;;;7.55;;
27412;SDS011;14871;52.702;5.230;2023-11-21T02:26:57;21.10;;;6.60;;
27412;SDS011;14871;52.702;5.230;2023-11-21T02:29:23;13.85;;;6.63;;
27412;SDS011;14871;52.702;5.230;2023-11-21T02:31:52;18.73;;;6.75;;
27412;SDS011;14871;52.702;5.230;2023-11-21T02:34:19;16.05;;;6.78;;
27412;SDS011;14871;52.702;5.230;2023-11-21T02:36:46;14.88;;;6.10;;
27412;SDS011;14871;52.702;5.230;2023-11-21T02:39:14;22.48;;;6.85;;
27412;SDS011;14871;52.702;5.230;2023-11-21T02:41:41;16.30;;;6.32;;
27412;SDS011;14871;52.702;5.230;2023-11-21T02:44:07;15.85;;;5.85;;
27412;SDS011;14871;52.702;5.230;2023-11-21T02:46:33;13.02;;;6.28;;
27412;SDS011;14871;52.702;5.230;2023-11-21T02:49:00;12.60;;;6.22;;
27412;SDS011;14871;52.702;5.230;2023-11-21T02:51:26;17.13;;;6.13;;
27412;SDS011;14871;52.702;5.230;2023-11-21T02:53:52;13.70;;;6.20;;
27412;SDS011;14871;52.702;5.230;2023-11-21T02:56:17;13.25;;;5.32;;
27412;SDS011;14871;52.702;5.230;2023-11-21T02:58:43;15.80;;;6.40;;
27412;SDS011;14871;52.702;5.230;2023-11-21T03:01:09;11.23;;;5.78;;
27412;SDS011;14871;52.702;5.230;2023-11-21T03:03:35;12.45;;;5.45;;
27412;SDS011;14871;52.702;5.230;2023-11-21T03:06:04;9.35;;;5.32;;
27412;SDS011;14871;52.702;5.230;2023-11-21T03:08:30;14.82;;;5.70;;
27412;SDS011;14871;52.702;5.230;2023-11-21T03:10:57;12.05;;;5.63;;
27412;SDS011;14871;52.702;5.230;2023-11-21T03:13:23;12.20;;;5.60;;
27412;SDS011;14871;52.702;5.230;2023-11-21T03:15:48;13.65;;;6.03;;
27412;SDS011;14871;52.702;5.230;2023-11-21T03:18:14;11.60;;;5.90;;
27412;SDS011;14871;52.702;5.230;2023-11-21T03:20:39;9.75;;;5.60;;
27412;SDS011;14871;52.702;5.230;2023-11-21T03:23:05;10.43;;;5.60;;
27412;SDS011;14871;52.702;5.230;2023-11-21T03:25:30;13.02;;;5.32;;
27412;SDS011;14871;52.702;5.230;2023-11-21T03:27:56;8.85;;;5.20;;
27412;SDS011;14871;52.702;5.230;2023-11-21T03:30:22;11.63;;;5.18;;
27412;SDS011;14871;52.702;5.230;2023-11-21T03:32:48;11.05;;;5.40;;
27412;SDS011;14871;52.702;5.230;2023-11-21T03:35:14;8.80;;;5.60;;
27412;SDS011;14871;52.702;5.230;2023-11-21T03:37:39;11.63;;;6.60;;
27412;SDS011;14871;52.702;5.230;2023-11-21T03:40:07;14.57;;;5.95;;
27412;SDS011;14871;52.702;5.230;2023-11-21T03:42:37;14.05;;;5.70;;
27412;SDS011;14871;52.702;5.230;2023-11-21T03:45:03;10.80;;;5.40;;
27412;SDS011;14871;52.702;5.230;2023-11-21T03:47:29;11.68;;;4.78;;
27412;SDS011;14871;52.702;5.230;2023-11-21T03:49:55;11.77;;;4.32;;
27412;SDS011;14871;52.702;5.230;2023-11-21T03:52:20;10.65;;;4.65;;
27412;SDS011;14871;52.702;5.230;2023-11-21T03:54:46;8.73;;;3.58;;
27412;SDS011;14871;52.702;5.230;2023-11-21T03:57:11;9.25;;;3.13;;
27412;SDS011;14871;52.702;5.230;2023-11-21T03:59:39;10.57;;;3.17;;
27412;SDS011;14871;52.702;5.230;2023-11-21T04:02:06;12.95;;;3.45;;
27412;SDS011;14871;52.702;5.230;2023-11-21T04:04:32;9.27;;;2.67;;
27412;SDS011;14871;52.702;5.230;2023-11-21T04:06:58;8.88;;;2.55;;
27412;SDS011;14871;52.702;5.230;2023-11-21T04:09:24;8.80;;;2.95;;
27412;SDS011;14871;52.702;5.230;2023-11-21T04:11:51;11.57;;;2.88;;
27412;SDS011;14871;52.702;5.230;2023-11-21T04:14:17;7.55;;;2.83;;
27412;SDS011;14871;52.702;5.230;2023-11-21T04:16:43;10.85;;;2.50;;
27412;SDS011;14871;52.702;5.230;2023-11-21T04:19:08;14.43;;;3.05;;
27412;SDS011;14871;52.702;5.230;2023-11-21T04:21:39;11.90;;;3.50;;
27412;SDS011;14871;52.702;5.230;2023-11-21T04:24:06;5.15;;;3.05;;
27412;SDS011;14871;52.702;5.230;2023-11-21T04:26:32;14.18;;;3.20;;
27412;SDS011;14871;52.702;5.230;2023-11-21T04:28:58;8.55;;;2.92;;
27412;SDS011;14871;52.702;5.230;2023-11-21T04:31:23;12.68;;;3.45;;
27412;SDS011;14871;52.702;5.230;2023-11-21T04:33:49;9.32;;;3.22;;
27412;SDS011;14871;52.702;5.230;2023-11-21T04:36:15;11.43;;;3.42;;
27412;SDS011;14871;52.702;5.230;2023-11-21T04:38:40;8.80;;;3.17;;
27412;SDS011;14871;52.702;5.230;2023-11-21T04:41:06;5.82;;;3.30;;
27412;SDS011;14871;52.702;5.230;2023-11-21T04:43:32;13.68;;;3.53;;
27412;SDS011;14871;52.702;5.230;2023-11-21T04:45:58;8.32;;;3.22;;
27412;SDS011;14871;52.702;5.230;2023-11-21T04:48:23;12.82;;;3.50;;
27412;SDS011;14871;52.702;5.230;2023-11-21T04:50:50;11.52;;;3.63;;
27412;SDS011;14871;52.702;5.230;2023-11-21T04:53:16;8.88;;;3.22;;
27412;SDS011;14871;52.702;5.230;2023-11-21T04:55:42;10.82;;;4.10;;
27412;SDS011;14871;52.702;5.230;2023-11-21T04:58:08;11.13;;;4.20;;
27412;SDS011;14871;52.702;5.230;2023-11-21T05:00:34;11.52;;;3.75;;
27412;SDS011;14871;52.702;5.230;2023-11-21T05:03:01;19.00;;;4.45;;
27412;SDS011;14871;52.702;5.230;2023-11-21T05:05:28;13.98;;;3.85;;
27412;SDS011;14871;52.702;5.230;2023-11-21T05:07:54;13.68;;;3.25;;
27412;SDS011;14871;52.702;5.230;2023-11-21T05:10:20;12.77;;;3.80;;
27412;SDS011;14871;52.702;5.230;2023-11-21T05:12:47;15.23;;;4.25;;
27412;SDS011;14871;52.702;5.230;2023-11-21T05:15:15;12.20;;;3.65;;
27412;SDS011;14871;52.702;5.230;2023-11-21T05:17:42;15.73;;;3.55;;
27412;SDS011;14871;52.702;5.230;2023-11-21T05:20:13;17.73;;;4.22;;
27412;SDS011;14871;52.702;5.230;2023-11-21T05:22:42;17.02;;;4.72;;
27412;SDS011;14871;52.702;5.230;2023-11-21T05:25:08;17.90;;;5.75;;
27412;SDS011;14871;52.702;5.230;2023-11-21T05:27:36;12.88;;;4.07;;
27412;SDS011;14871;52.702;5.230;2023-11-21T05:30:02;14.70;;;4.30;;
27412;SDS011;14871;52.702;5.230;2023-11-21T05:32:36;20.05;;;4.90;;
27412;SDS011;14871;52.702;5.230;2023-11-21T05:35:03;15.40;;;5.10;;
27412;SDS011;14871;52.702;5.230;2023-11-21T05:37:34;16.67;;;4.60;;
27412;SDS011;14871;52.702;5.230;2023-11-21T05:40:00;14.27;;;5.20;;
27412;SDS011;14871;52.702;5.230;2023-11-21T05:42:30;14.45;;;6.32;;
27412;SDS011;14871;52.702;5.230;2023-11-21T05:44:59;14.55;;;5.95;;
27412;SDS011;14871;52.702;5.230;2023-11-21T05:47:41;13.00;;;5.55;;
27412;SDS011;14871;52.702;5.230;2023-11-21T05:50:09;19.15;;;6.43;;
27412;SDS011;14871;52.702;5.230;2023-11-21T05:52:37;14.20;;;5.75;;
27412;SDS011;14871;52.702;5.230;2023-11-21T05:55:04;16.17;;;5.55;;
27412;SDS011;14871;52.702;5.230;2023-11-21T05:57:32;14.00;;;5.80;;
27412;SDS011;14871;52.702;5.230;2023-11-21T06:00:10;12.27;;;6.20;;
27412;SDS011;14871;52.702;5.230;2023-11-21T06:02:43;12.68;;;6.25;;
27412;SDS011;14871;52.702;5.230;2023-11-21T06:05:10;10.68;;;5.80;;
27412;SDS011;14871;52.702;5.230;2023-11-21T06:07:36;11.73;;;5.95;;
27412;SDS011;14871;52.702;5.230;2023-11-21T06:10:03;16.15;;;7.05;;
27412;SDS011;14871;52.702;5.230;2023-11-21T06:12:32;13.73;;;6.43;;
27412;SDS011;14871;52.702;5.230;2023-11-21T06:15:01;12.02;;;6.13;;
27412;SDS011;14871;52.702;5.230;2023-11-21T06:17:29;18.23;;;7.05;;
27412;SDS011;14871;52.702;5.230;2023-11-21T06:20:01;18.63;;;6.82;;
27412;SDS011;14871;52.702;5.230;2023-11-21T06:22:34;15.00;;;6.30;;
27412;SDS011;14871;52.702;5.230;2023-11-21T06:25:03;13.00;;;6.03;;
27412;SDS011;14871;52.702;5.230;2023-11-21T06:27:31;13.40;;;6.32;;
27412;SDS011;14871;52.702;5.230;2023-11-21T06:29:58;13.55;;;5.88;;
27412;SDS011;14871;52.702;5.230;2023-11-21T06:32:23;13.13;;;5.75;;
27412;SDS011;14871;52.702;5.230;2023-11-21T06:34:49;11.80;;;5.45;;
27412;SDS011;14871;52.702;5.230;2023-11-21T06:37:15;12.73;;;5.80;;
27412;SDS011;14871;52.702;5.230;2023-11-21T06:39:41;12.32;;;5.10;;
27412;SDS011;14871;52.702;5.230;2023-11-21T06:42:07;10.32;;;5.45;;
27412;SDS011;14871;52.702;5.230;2023-11-21T06:44:33;11.77;;;5.57;;
27412;SDS011;14871;52.702;5.230;2023-11-21T06:47:00;10.57;;;5.60;;
27412;SDS011;14871;52.702;5.230;2023-11-21T06:49:26;10.52;;;5.85;;
27412;SDS011;14871;52.702;5.230;2023-11-21T06:51:51;13.05;;;5.93;;
27412;SDS011;14871;52.702;5.230;2023-11-21T06:54:18;10.82;;;5.68;;
27412;SDS011;14871;52.702;5.230;2023-11-21T06:56:43;12.80;;;5.70;;
27412;SDS011;14871;52.702;5.230;2023-11-21T06:59:09;11.85;;;6.82;;
27412;SDS011;14871;52.702;5.230;2023-11-21T07:01:35;12.38;;;6.68;;
27412;SDS011;14871;52.702;5.230;2023-11-21T07:04:04;14.75;;;6.72;;
27412;SDS011;14871;52.702;5.230;2023-11-21T07:06:31;15.52;;;6.35;;
27412;SDS011;14871;52.702;5.230;2023-11-21T07:08:57;13.23;;;6.80;;
27412;SDS011;14871;52.702;5.230;2023-11-21T07:11:23;11.13;;;6.38;;
27412;SDS011;14871;52.702;5.230;2023-11-21T07:13:50;11.43;;;5.72;;
27412;SDS011;14871;52.702;5.230;2023-11-21T07:16:15;10.57;;;5.72;;
27412;SDS011;14871;52.702;5.230;2023-11-21T07:18:41;12.52;;;6.05;;
27412;SDS011;14871;52.702;5.230;2023-11-21T07:21:07;11.15;;;6.55;;
27412;SDS011;14871;52.702;5.230;2023-11-21T07:23:33;11.88;;;5.75;;
27412;SDS011;14871;52.702;5.230;2023-11-21T07:25:59;11.57;;;5.85;;
27412;SDS011;14871;52.702;5.230;2023-11-21T07:28:24;14.65;;;6.55;;
27412;SDS011;14871;52.702;5.230;2023-11-21T07:30:53;13.55;;;6.88;;
27412;SDS011;14871;52.702;5.230;2023-11-21T07:33:18;12.00;;;6.55;;
27412;SDS011;14871;52.702;5.230;2023-11-21T07:35:44;12.80;;;7.35;;
27412;SDS011;14871;52.702;5.230;2023-11-21T07:38:10;12.80;;;7.05;;
27412;SDS011;14871;52.702;5.230;2023-11-21T07:40:35;13.95;;;6.55;;
27412;SDS011;14871;52.702;5.230;2023-11-21T07:43:01;12.50;;;6.07;;
27412;SDS011;14871;52.702;5.230;2023-11-21T07:45:27;10.80;;;7.00;;
27412;SDS011;14871;52.702;5.230;2023-11-21T07:47:55;12.73;;;7.78;;
27412;SDS011;14871;52.702;5.230;2023-11-21T07:50:21;19.92;;;8.65;;
27412;SDS011;14871;52.702;5.230;2023-11-21T07:52:48;19.42;;;9.85;;
27412;SDS011;14871;52.702;5.230;2023-11-21T07:55:14;19.30;;;10.20;;
27412;SDS011;14871;52.702;5.230;2023-11-21T07:57:40;21.40;;;10.55;;
27412;SDS011;14871;52.702;5.230;2023-11-21T08:00:06;18.88;;;10.88;;
27412;SDS011;14871;52.702;5.230;2023-11-21T08:02:37;21.65;;;10.63;;
27412;SDS011;14871;52.702;5.230;2023-11-21T08:05:04;19.38;;;10.60;;
27412;SDS011;14871;52.702;5.230;2023-11-21T08:07:30;21.38;;;10.57;;
27412;SDS011;14871;52.702;5.230;2023-11-21T08:09:56;20.58;;;10.55;;
27412;SDS011;14871;52.702;5.230;2023-11-21T08:12:22;20.75;;;10.52;;
27412;SDS011;14871;52.702;5.230;2023-11-21T08:14:49;19.58;;;10.88;;
27412;SDS011;14871;52.702;5.230;2023-11-21T08:17:14;18.83;;;10.85;;
27412;SDS011;14871;52.702;5.230;2023-11-21T08:19:40;21.13;;;10.95;;
27412;SDS011;14871;52.702;5.230;2023-11-21T08:22:06;20.42;;;10.98;;
27412;SDS011;14871;52.702;5.230;2023-11-21T08:24:32;20.00;;;9.48;;
27412;SDS011;14871;52.702;5.230;2023-11-21T08:26:58;21.80;;;10.57;;
27412;SDS011;14871;52.702;5.230;2023-11-21T08:29:24;20.98;;;10.23;;
27412;SDS011;14871;52.702;5.230;2023-11-21T08:31:49;17.58;;;9.52;;
27412;SDS011;14871;52.702;5.230;2023-11-21T08:34:15;22.52;;;10.70;;
27412;SDS011;14871;52.702;5.230;2023-11-21T08:36:41;20.65;;;10.25;;
27412;SDS011;14871;52.702;5.230;2023-11-21T08:39:10;20.30;;;10.80;;
27412;SDS011;14871;52.702;5.230;2023-11-21T08:41:36;23.58;;;11.13;;
27412;SDS011;14871;52.702;5.230;2023-11-21T08:44:02;23.45;;;10.85;;
27412;SDS011;14871;52.702;5.230;2023-11-21T08:46:32;21.00;;;10.75;;
27412;SDS011;14871;52.702;5.230;2023-11-21T08:49:00;22.67;;;10.95;;
27412;SDS011;14871;52.702;5.230;2023-11-21T08:51:26;22.85;;;11.10;;
27412;SDS011;14871;52.702;5.230;2023-11-21T08:53:51;23.42;;;11.55;;
27412;SDS011;14871;52.702;5.230;2023-11-21T08:56:18;23.50;;;11.02;;
27412;SDS011;14871;52.702;5.230;2023-11-21T08:58:45;23.42;;;11.18;;
27412;SDS011;14871;52.702;5.230;2023-11-21T09:01:11;25.00;;;11.10;;
27412;SDS011;14871;52.702;5.230;2023-11-21T09:03:37;25.40;;;11.73;;
27412;SDS011;14871;52.702;5.230;2023-11-21T09:06:03;26.95;;;13.32;;
27412;SDS011;14871;52.702;5.230;2023-11-21T09:08:29;25.77;;;11.95;;
27412;SDS011;14871;52.702;5.230;2023-11-21T09:10:55;28.02;;;12.90;;
27412;SDS011;14871;52.702;5.230;2023-11-21T09:13:21;27.02;;;12.55;;
27412;SDS011;14871;52.702;5.230;2023-11-21T09:15:47;25.90;;;12.52;;
27412;SDS011;14871;52.702;5.230;2023-11-21T09:18:14;26.70;;;12.90;;
27412;SDS011;14871;52.702;5.230;2023-11-21T09:20:40;24.92;;;12.73;;
27412;SDS011;14871;52.702;5.230;2023-11-21T09:23:09;28.42;;;13.63;;
27412;SDS011;14871;52.702;5.230;2023-11-21T09:25:34;25.15;;;11.95;;
27412;SDS011;14871;52.702;5.230;2023-11-21T09:28:02;25.85;;;12.65;;
27412;SDS011;14871;52.702;5.230;2023-11-21T09:30:32;24.08;;;13.60;;
27412;SDS011;14871;52.702;5.230;2023-11-21T09:32:59;30.08;;;13.77;;
27412;SDS011;14871;52.702;5.230;2023-11-21T09:35:25;25.58;;;12.85;;
27412;SDS011;14871;52.702;5.230;2023-11-21T09:37:52;27.83;;;14.02;;
27412;SDS011;14871;52.702;5.230;2023-11-21T09:40:20;28.30;;;13.45;;
27412;SDS011;14871;52.702;5.230;2023-11-21T09:42:56;26.08;;;13.02;;
27412;SDS011;14871;52.702;5.230;2023-11-21T09:45:27;22.15;;;11.52;;
27412;SDS011;14871;52.702;5.230;2023-11-21T09:47:54;20.63;;;10.70;;
27412;SDS011;14871;52.702;5.230;2023-11-21T09:50:20;20.33;;;11.45;;
27412;SDS011;14871;52.702;5.230;2023-11-21T09:55:24;16.83;;;9.60;;
27412;SDS011;14871;52.702;5.230;2023-11-21T09:57:52;14.75;;;8.93;;
27412;SDS011;14871;52.702;5.230;2023-11-21T10:00:20;15.73;;;9.00;;
27412;SDS011;14871;52.702;5.230;2023-11-21T10:02:48;14.23;;;8.90;;
27412;SDS011;14871;52.702;5.230;2023-11-21T10:05:15;15.95;;;8.52;;
27412;SDS011;14871;52.702;5.230;2023-11-21T10:07:42;12.57;;;8.35;;
27412;SDS011;14871;52.702;5.230;2023-11-21T10:10:10;14.02;;;8.50;;
27412;SDS011;14871;52.702;5.230;2023-11-21T10:12:36;13.52;;;8.60;;
27412;SDS011;14871;52.702;5.230;2023-11-21T10:15:03;14.95;;;8.85;;
27412;SDS011;14871;52.702;5.230;2023-11-21T10:17:34;12.18;;;8.13;;
27412;SDS011;14871;52.702;5.230;2023-11-21T10:20:08;14.52;;;8.25;;
27412;SDS011;14871;52.702;5.230;2023-11-21T10:22:39;11.35;;;8.07;;
27412;SDS011;14871;52.702;5.230;2023-11-21T10:25:09;12.27;;;8.02;;
27412;SDS011;14871;52.702;5.230;2023-11-21T10:27:35;13.13;;;8.48;;
27412;SDS011;14871;52.702;5.230;2023-11-21T10:30:03;13.95;;;8.82;;
27412;SDS011;14871;52.702;5.230;2023-11-21T10:32:30;13.32;;;8.50;;
27412;SDS011;14871;52.702;5.230;2023-11-21T10:34:57;16.98;;;8.90;;
27412;SDS011;14871;52.702;5.230;2023-11-21T10:37:31;16.02;;;8.57;;
27412;SDS011;14871;52.702;5.230;2023-11-21T10:40:05;12.88;;;8.40;;
27412;SDS011;14871;52.702;5.230;2023-11-21T10:42:32;13.00;;;7.70;;
27412;SDS011;14871;52.702;5.230;2023-11-21T10:44:58;13.70;;;8.02;;
27412;SDS011;14871;52.702;5.230;2023-11-21T10:47:23;15.82;;;8.80;;
27412;SDS011;14871;52.702;5.230;2023-11-21T10:49:51;13.73;;;7.82;;
27412;SDS011;14871;52.702;5.230;2023-11-21T10:52:19;13.27;;;8.27;;
27412;SDS011;14871;52.702;5.230;2023-11-21T10:54:45;17.40;;;8.35;;
27412;SDS011;14871;52.702;5.230;2023-11-21T10:57:11;12.30;;;7.85;;
27412;SDS011;14871;52.702;5.230;2023-11-21T10:59:41;13.73;;;7.57;;
27412;SDS011;14871;52.702;5.230;2023-11-21T11:02:22;12.25;;;7.88;;
27412;SDS011;14871;52.702;5.230;2023-11-21T11:04:57;14.05;;;8.90;;
27412;SDS011;14871;52.702;5.230;2023-11-21T11:07:26;15.20;;;8.75;;
27412;SDS011;14871;52.702;5.230;2023-11-21T11:09:56;16.45;;;8.70;;
27412;SDS011;14871;52.702;5.230;2023-11-21T11:12:23;16.15;;;9.95;;
27412;SDS011;14871;52.702;5.230;2023-11-21T11:14:49;15.90;;;10.52;;
27412;SDS011;14871;52.702;5.230;2023-11-21T11:17:17;17.50;;;9.77;;
27412;SDS011;14871;52.702;5.230;2023-11-21T11:19:45;17.77;;;10.57;;
27412;SDS011;14871;52.702;5.230;2023-11-21T11:24:48;17.48;;;11.25;;
27412;SDS011;14871;52.702;5.230;2023-11-21T11:27:54;17.30;;;11.77;;
27412;SDS011;14871;52.702;5.230;2023-11-21T11:30:48;19.58;;;12.32;;
27412;SDS011;14871;52.702;5.230;2023-11-21T11:33:48;18.48;;;12.38;;
27412;SDS011;14871;52.702;5.230;2023-11-21T11:36:54;16.73;;;10.57;;
27412;SDS011;14871;52.702;5.230;2023-11-21T11:39:37;17.88;;;10.32;;
27412;SDS011;14871;52.702;5.230;2023-11-21T11:42:07;14.60;;;10.18;;
27412;SDS011;14871;52.702;5.230;2023-11-21T11:47:14;14.57;;;10.43;;
27412;SDS011;14871;52.702;5.230;2023-11-21T11:55:06;16.67;;;9.77;;
27412;SDS011;14871;52.702;5.230;2023-11-21T11:57:35;13.35;;;9.13;;
27412;SDS011;14871;52.702;5.230;2023-11-21T12:02:35;10.43;;;6.93;;
27412;SDS011;14871;52.702;5.230;2023-11-21T12:05:06;11.70;;;7.57;;
27412;SDS011;14871;52.702;5.230;2023-11-21T12:07:48;11.32;;;6.85;;
27412;SDS011;14871;52.702;5.230;2023-11-21T12:10:15;9.85;;;7.20;;
27412;SDS011;14871;52.702;5.230;2023-11-21T12:12:46;9.63;;;6.68;;
27412;SDS011;14871;52.702;5.230;2023-11-21T12:15:18;10.15;;;6.78;;
27412;SDS011;14871;52.702;5.230;2023-11-21T12:17:45;10.93;;;7.50;;
27412;SDS011;14871;52.702;5.230;2023-11-21T12:20:14;12.88;;;6.63;;
27412;SDS011;14871;52.702;5.230;2023-11-21T12:22:43;10.15;;;7.15;;
27412;SDS011;14871;52.702;5.230;2023-11-21T12:25:12;11.43;;;6.75;;
27412;SDS011;14871;52.702;5.230;2023-11-21T12:27:43;11.50;;;8.13;;
27412;SDS011;14871;52.702;5.230;2023-11-21T12:30:11;13.27;;;8.10;;
27412;SDS011;14871;52.702;5.230;2023-11-21T12:32:40;12.45;;;8.52;;
27412;SDS011;14871;52.702;5.230;2023-11-21T12:35:07;13.30;;;8.50;;
27412;SDS011;14871;52.702;5.230;2023-11-21T12:37:35;12.18;;;8.45;;
27412;SDS011;14871;52.702;5.230;2023-11-21T12:40:03;15.23;;;9.18;;
27412;SDS011;14871;52.702;5.230;2023-11-21T12:42:37;14.20;;;8.48;;
27412;SDS011;14871;52.702;5.230;2023-11-21T12:45:25;14.32;;;8.68;;
27412;SDS011;14871;52.702;5.230;2023-11-21T12:48:02;13.07;;;9.55;;
27412;SDS011;14871;52.702;5.230;2023-11-21T12:50:32;11.15;;;7.63;;
27412;SDS011;14871;52.702;5.230;2023-11-21T12:53:02;13.20;;;8.02;;
27412;SDS011;14871;52.702;5.230;2023-11-21T12:55:31;14.43;;;8.73;;
27412;SDS011;14871;52.702;5.230;2023-11-21T12:58:00;14.68;;;8.73;;
27412;SDS011;14871;52.702;5.230;2023-11-21T13:00:42;13.52;;;9.65;;
27412;SDS011;14871;52.702;5.230;2023-11-21T13:03:10;13.77;;;8.85;;
27412;SDS011;14871;52.702;5.230;2023-11-21T13:05:38;12.57;;;8.80;;
27412;SDS011;14871;52.702;5.230;2023-11-21T13:08:07;13.27;;;8.50;;
27412;SDS011;14871;52.702;5.230;2023-11-21T13:10:35;13.02;;;9.35;;
27412;SDS011;14871;52.702;5.230;2023-11-21T13:13:04;12.93;;;9.23;;
27412;SDS011;14871;52.702;5.230;2023-11-21T13:15:33;9.95;;;8.27;;
27412;SDS011;14871;52.702;5.230;2023-11-21T13:18:01;10.00;;;7.97;;
27412;SDS011;14871;52.702;5.230;2023-11-21T13:20:28;8.82;;;7.22;;
27412;SDS011;14871;52.702;5.230;2023-11-21T13:22:55;11.65;;;7.03;;
27412;SDS011;14871;52.702;5.230;2023-11-21T13:25:24;9.95;;;7.28;;
27412;SDS011;14871;52.702;5.230;2023-11-21T13:27:59;10.80;;;7.80;;
27412;SDS011;14871;52.702;5.230;2023-11-21T13:30:28;8.63;;;7.68;;
27412;SDS011;14871;52.702;5.230;2023-11-21T13:33:01;10.57;;;7.97;;
27412;SDS011;14871;52.702;5.230;2023-11-21T13:35:31;10.02;;;8.02;;
27412;SDS011;14871;52.702;5.230;2023-11-21T13:38:05;10.50;;;8.20;;
27412;SDS011;14871;52.702;5.230;2023-11-21T13:40:36;13.82;;;8.57;;
27412;SDS011;14871;52.702;5.230;2023-11-21T13:45:40;9.70;;;8.30;;
27412;SDS011;14871;52.702;5.230;2023-11-21T13:48:07;9.85;;;8.32;;
27412;SDS011;14871;52.702;5.230;2023-11-21T13:50:41;10.70;;;8.27;;
27412;SDS011;14871;52.702;5.230;2023-11-21T13:53:14;12.70;;;8.63;;
27412;SDS011;14871;52.702;5.230;2023-11-21T13:55:51;13.93;;;10.23;;
27412;SDS011;14871;52.702;5.230;2023-11-21T13:58:23;13.68;;;9.32;;
27412;SDS011;14871;52.702;5.230;2023-11-21T14:01:07;12.27;;;7.97;;
27412;SDS011;14871;52.702;5.230;2023-11-21T14:03:52;10.82;;;8.18;;
27412;SDS011;14871;52.702;5.230;2023-11-21T14:06:23;12.27;;;8.93;;
27412;SDS011;14871;52.702;5.230;2023-11-21T14:08:56;11.65;;;7.95;;
27412;SDS011;14871;52.702;5.230;2023-11-21T14:11:22;9.65;;;7.57;;
27412;SDS011;14871;52.702;5.230;2023-11-21T14:13:48;11.18;;;7.85;;
27412;SDS011;14871;52.702;5.230;2023-11-21T14:16:15;10.48;;;8.02;;
27412;SDS011;14871;52.702;5.230;2023-11-21T14:18:42;10.95;;;7.38;;
27412;SDS011;14871;52.702;5.230;2023-11-21T14:21:19;11.15;;;7.53;;
27412;SDS011;14871;52.702;5.230;2023-11-21T14:23:44;10.40;;;6.88;;
27412;SDS011;14871;52.702;5.230;2023-11-21T14:26:11;10.80;;;7.68;;
27412;SDS011;14871;52.702;5.230;2023-11-21T14:28:41;11.00;;;7.20;;
27412;SDS011;14871;52.702;5.230;2023-11-21T14:31:07;9.43;;;7.00;;
27412;SDS011;14871;52.702;5.230;2023-11-21T14:33:38;10.35;;;7.47;;
27412;SDS011;14871;52.702;5.230;2023-11-21T14:36:04;10.85;;;7.38;;
27412;SDS011;14871;52.702;5.230;2023-11-21T14:38:33;11.52;;;7.38;;
27412;SDS011;14871;52.702;5.230;2023-11-21T14:40:58;9.70;;;6.80;;
27412;SDS011;14871;52.702;5.230;2023-11-21T14:43:24;13.20;;;7.40;;
27412;SDS011;14871;52.702;5.230;2023-11-21T14:45:54;10.70;;;7.78;;
27412;SDS011;14871;52.702;5.230;2023-11-21T14:48:21;12.07;;;7.65;;
27412;SDS011;14871;52.702;5.230;2023-11-21T14:51:05;10.80;;;7.53;;
27412;SDS011;14871;52.702;5.230;2023-11-21T14:53:31;11.00;;;6.85;;
27412;SDS011;14871;52.702;5.230;2023-11-21T14:56:18;12.27;;;7.40;;